Lenexa, KS (66285)

7:27 PM CDT on April 28, 2017 (GMT -0500)
Crestview, Shawnee Mission, Kansas | | Change Station

Elev 1053 ft 39.02 °N, 94.68 °W | Updated 26 seconds ago

Overcast
Overcast
55.5 °F
Feels Like 55.5 °F
N
1.0
Wind Variable Wind from NW

Today
High -- | Low -- °F
--% Chance of Precip.
Yesterday
High -- | Low -- °F
Precip. -- in
Pressure 29.77 in
Visibility 10.0 miles
Clouds Overcast 700 ft
Dew Point 54 °F
Humidity 95%
Rainfall 0.49 in
Snow Depth Not available.
6:23 AM 8:08 PM
Waxing Crescent, 9% visible
METAR KMKC 282354Z AUTO 01011KT 10SM OVC007 13/11 A2977 RMK AO2 PRESRR SLP081 60000 T01280111 10189 20128 53025
Pressure 29.77 in
Visibility 10.0 miles
Clouds Overcast 700 ft
Dew Point 54 °F
Humidity 95%
Rainfall 0.49 in
Snow Depth Not available.
6:23 AM 8:08 PM
Waxing Crescent, 9% visible
METAR KMKC 282354Z AUTO 01011KT 10SM OVC007 13/11 A2977 RMK AO2 PRESRR SLP081 60000 T01280111 10189 20128 53025

Get Severe Weather Alerts

Thanks for signing up!

Be on the lookout for a verification email in your inbox.

You'll start receiving the daily forecast at 8 AM.

×

10-Day Weather Forecast

Almanac

Astronomy

Apr. 28, 2017 Rise Set
Actual Time
Civil Twilight
Nautical Twilight
Astronomical Twilight
Moon
Length of Visible Light
Length of Day
Tomorrow will be .
, % of the Moon is Illuminated

Today's Extremes

State Highs State Lows

Community

WunderPhotos

WunderBlog® & News

Nearby

Air Quality

  Air Quality AQ Index Pollutant
Not available.

Snow Depth

Station Depth Elevation

Earthquake Activity

City Distance Mag. Time & Date
Minimum magnitude displayed is 2.5.

Coastal Water Temperatures

Place Temperature

Stations

Nearby Weather Stations

Station Location Temp. Windchill Dew Point Humidity Wind Precip. Elev Updated Type
                   

Watches & Warnings

There are currently no watches in effect.